メインページ
METAR-TAF:

METAR-TAF

空港 :

ニューデリー, インド

インディラ・ガンディー国際空港

緯度: 28-34N, 経度: 077-07E, 海抜: 220m

現時点の気象観測

当レポートは35分前の20:30(UTC)に作成
北/北西の風 6kt
気温 29°C
湿度 45%
気圧 1008 hPa
視程: 4000m
煙霧

METAR: VIDP 292030Z 33006KT 4000 HZ NSC 29/16 Q1008 NOSIG

時間: 02:35 (21:05 UTC)

予報

当レポートは4時間5分前の17:00(UTC)に作成
予報は29日の 18時(UTC)から 30日の 24時(UTC)まで有効
西/北西の風 4kt
視程: 3500m
煙霧
30日の 01時(UTC)から 30日の 03時(UTC)まで徐々に
南西の風 3kt
視程: 2000m
煙霧
30日の 06時(UTC)から 30日の 08時(UTC)まで徐々に
北西の風 8kt、最大18ktの突風を伴う
視程: 4500m
煙霧
30日の 18時(UTC)から 30日の 20時(UTC)まで徐々に
西の風 4kt
視程: 3000m
高度10000ftの雲はほとんどない
煙霧

TAF: VIDP 291700Z 2918/3024 29004KT 3500 HZ NSC BECMG 3001/3003 23003KT 2000 HZ BECMG 3006/3008 31008G18KT 4500 HZ BECMG 3018/3020 26004KT 3000 HZ FEW100

4,000以上の空港の気象観測と天気予報(METAR報とTAF報)

利用可能な観測所は地図上に黄色い丸と赤い丸で示す。

丸の上にカーソルを重ねると観測所名を参照できる。

次にクリックすると気象観測と天気予報を参照できる。

マップの切り替え:黒色「×」印の緑ボタンをクリックして拡大、「-」印の緑ボタンをクリックして縮小、緑色の三角印をクリックして隣りの地図に切り替え


METAR-TAF: